首页
METAR-TAF:

METAR-TAF

机场 :

班加罗尔国际机场

班加羅爾, 印度

纬度: 13-11-56N, 经度: 077-42-20E, 海拔: 915米

当前天气观测

该预报发布于31分钟前的17:00 UTC
风速9节,风向西
温度 24°C
湿度 78%
气压 1013 hPa
能見度: 6000
散云层高于1200英尺
多云层高于8000英尺

METAR: VOBL 181700Z 26009KT 6000 SCT012 BKN080 24/20 Q1013 NOSIG

时间: 23:01 (17:31 UTC)

预报

该预报发布于3小时和31分钟前的14:00 UTC
预报有效从18日的 15点(UTC)到 18日的 24点(UTC)
风速10节,风向西转西南
能見度: 6000
散云层高于1200英尺
散云层高于8000英尺
短暂存在
从 18日的 15点(UTC)到 18日的 18点(UTC)
能見度: 5000
散云层高于800英尺
散云层高于1200英尺
多云层高于8000英尺
雨, 毛毛雨,

TAF: VOBL 181400Z 1815/1824 25010KT 6000 SCT012 SCT080 TEMPO 1815/1818 5000 RA DZ SCT008 SCT012 BKN080

超过4000个机场的气象观测和天气预报(METAR&TAF报告)。

可查询的气象台以黄色和红色小点在地图上表示。

将鼠标移到小点上方,可查看气象台名称。

然后点击查看天气观测和预报。

如需切换地图:点击带黑十字的绿色按钮放大地图;点击带横线的绿色按钮缩小地图;或者点击绿色箭头查看邻近地区的地图。


METAR-TAF: